createdAt,value
2022-07-31T00:07:02.395Z,21.18
2022-07-31T00:17:04.275Z,20.84
2022-07-31T00:27:06.436Z,20.53
2022-07-31T00:37:08.041Z,20.24
2022-07-31T00:47:09.448Z,20.23
2022-07-31T00:57:10.787Z,19.99
2022-07-31T01:07:12.170Z,19.76
2022-07-31T01:17:13.557Z,19.56
2022-07-31T01:27:14.906Z,19.35
2022-07-31T01:37:16.274Z,19.34
2022-07-31T01:47:17.613Z,19.39
2022-07-31T01:57:19.175Z,19.17
2022-07-31T02:07:20.557Z,19.03
2022-07-31T02:17:22.689Z,18.84
2022-07-31T02:27:53.772Z,18.63
2022-07-31T02:37:45.581Z,18.31
2022-07-31T02:47:46.930Z,18.35
2022-07-31T02:57:50.374Z,18.54
2022-07-31T03:07:51.707Z,18.48
2022-07-31T03:17:53.086Z,18.37
2022-07-31T03:27:56.938Z,18.22
2022-07-31T03:37:58.803Z,18.22
2022-07-31T03:48:00.199Z,18.06
2022-07-31T03:58:02.674Z,18.09
2022-07-31T04:08:04.019Z,18.35
2022-07-31T04:18:06.737Z,18.48
2022-07-31T04:28:08.087Z,18.69
2022-07-31T04:38:11.996Z,18.44
2022-07-31T04:48:13.372Z,18.79
2022-07-31T04:58:17.565Z,19.08
2022-07-31T05:08:19.024Z,19.21
2022-07-31T05:18:20.358Z,19.37
2022-07-31T05:28:29.960Z,19.51
2022-07-31T05:38:31.599Z,19.67
2022-07-31T05:48:33.169Z,19.88
2022-07-31T05:58:34.614Z,20.18
2022-07-31T06:08:36.069Z,20.41
2022-07-31T06:18:37.414Z,20.55
2022-07-31T06:28:47.449Z,20.87
2022-07-31T06:38:50.387Z,21.15
2022-07-31T06:48:52.177Z,21.27
2022-07-31T06:58:53.591Z,21.47
2022-07-31T07:08:57.926Z,21.81
2022-07-31T07:18:59.250Z,22.17
2022-07-31T07:29:01.606Z,22.93
2022-07-31T07:39:03.357Z,23.43
2022-07-31T07:49:06.377Z,23.97
2022-07-31T07:59:15.122Z,24.31
2022-07-31T08:09:17.661Z,25.17
2022-07-31T08:19:19.112Z,25.65
2022-07-31T08:29:27.379Z,25.94
2022-07-31T08:39:30.196Z,26.88
2022-07-31T08:49:31.713Z,27.23
2022-07-31T08:59:33.092Z,27.50
2022-07-31T09:09:50.798Z,27.87
2022-07-31T09:19:55.199Z,27.96
2022-07-31T09:29:56.532Z,28.13
2022-07-31T09:39:57.961Z,28.04
2022-07-31T09:49:59.956Z,28.07
2022-07-31T10:00:01.327Z,28.77
2022-07-31T10:10:03.015Z,28.82
2022-07-31T10:20:04.378Z,29.15
2022-07-31T10:30:05.695Z,29.55
2022-07-31T10:40:07.446Z,29.33
2022-07-31T10:50:08.862Z,29.66
2022-07-31T11:00:11.942Z,30.33
2022-07-31T11:10:13.347Z,29.29
2022-07-31T11:20:14.958Z,29.32
2022-07-31T11:30:16.324Z,30.12
2022-07-31T11:40:18.690Z,29.85
2022-07-31T11:50:23.536Z,29.81
2022-07-31T12:00:27.358Z,29.61
2022-07-31T12:10:30.794Z,29.79
2022-07-31T12:20:36.588Z,29.95
2022-07-31T12:30:38.738Z,30.81
2022-07-31T12:40:40.061Z,31.08
2022-07-31T12:50:41.577Z,31.35
2022-07-31T13:00:42.837Z,31.40
2022-07-31T13:10:44.431Z,30.79
2022-07-31T13:20:45.788Z,30.31
2022-07-31T13:30:47.108Z,30.91
2022-07-31T13:41:07.228Z,31.40
2022-07-31T13:51:08.712Z,31.85
2022-07-31T14:01:10.041Z,30.70
2022-07-31T14:11:13.669Z,31.29
2022-07-31T14:21:16.656Z,31.75
2022-07-31T14:31:17.999Z,32.03
2022-07-31T14:41:19.367Z,31.90
2022-07-31T14:51:20.773Z,31.84
2022-07-31T15:01:22.139Z,31.44
2022-07-31T15:11:59.199Z,31.59
2022-07-31T15:22:16.032Z,31.13
2022-07-31T15:32:08.664Z,31.68
2022-07-31T15:42:14.913Z,31.54
2022-07-31T15:52:18.833Z,31.48
2022-07-31T16:02:20.816Z,31.58
2022-07-31T16:12:22.151Z,31.70
2022-07-31T16:22:23.563Z,31.61
2022-07-31T16:32:25.034Z,32.03
2022-07-31T16:42:26.311Z,31.87
2022-07-31T16:52:27.600Z,32.03
2022-07-31T17:02:28.863Z,31.12
2022-07-31T17:12:30.160Z,31.04
2022-07-31T17:22:31.611Z,31.16
2022-07-31T17:32:34.662Z,31.27
2022-07-31T17:42:35.923Z,31.13
2022-07-31T17:52:38.164Z,30.70
2022-07-31T18:02:40.385Z,30.42
2022-07-31T18:12:57.701Z,30.33
2022-07-31T18:22:59.325Z,29.87
2022-07-31T18:33:01.661Z,29.15
2022-07-31T18:43:04.145Z,28.69
2022-07-31T18:53:05.467Z,28.33
2022-07-31T19:03:07.930Z,28.02
2022-07-31T19:13:09.255Z,27.63
2022-07-31T19:23:20.473Z,27.31
2022-07-31T19:33:21.807Z,27.00
2022-07-31T19:43:23.126Z,26.64
2022-07-31T19:53:24.406Z,26.43
2022-07-31T20:03:26.470Z,25.98
2022-07-31T20:13:28.163Z,25.79
2022-07-31T20:23:29.532Z,25.68
2022-07-31T20:33:30.884Z,25.52
2022-07-31T20:43:32.226Z,25.39
2022-07-31T20:53:33.583Z,25.17
2022-07-31T21:03:34.985Z,24.96
2022-07-31T21:13:36.427Z,24.82
2022-07-31T21:23:37.764Z,24.57
2022-07-31T21:33:39.234Z,24.47
2022-07-31T21:43:58.075Z,24.32
2022-07-31T21:54:00.547Z,24.06
2022-07-31T22:04:01.911Z,24.04
2022-07-31T22:14:03.258Z,24.06
2022-07-31T22:24:04.641Z,23.71
2022-07-31T22:34:06.014Z,23.37
2022-07-31T22:44:12.756Z,23.16
2022-07-31T22:54:15.644Z,22.91
2022-07-31T23:04:17.045Z,22.67
2022-07-31T23:14:18.379Z,22.66
2022-07-31T23:24:19.698Z,22.66
2022-07-31T23:34:21.035Z,22.71
2022-07-31T23:44:25.115Z,22.62
2022-07-31T23:54:27.746Z,22.48
